sensor_id;sensor_type;location;lat;lon;timestamp;P1;durP1;ratioP1;P2;durP2;ratioP2
33954;SDS011;20233;50.804;7.126;2023-05-16T00:00:15;9.90;;;3.40;;
33954;SDS011;20233;50.804;7.126;2023-05-16T00:02:41;9.00;;;3.53;;
33954;SDS011;20233;50.804;7.126;2023-05-16T00:05:07;10.95;;;3.72;;
33954;SDS011;20233;50.804;7.126;2023-05-16T00:07:34;11.38;;;3.65;;
33954;SDS011;20233;50.804;7.126;2023-05-16T00:10:00;9.90;;;2.83;;
33954;SDS011;20233;50.804;7.126;2023-05-16T00:12:26;7.95;;;2.97;;
33954;SDS011;20233;50.804;7.126;2023-05-16T00:14:53;6.60;;;3.00;;
33954;SDS011;20233;50.804;7.126;2023-05-16T00:17:20;5.07;;;2.08;;
33954;SDS011;20233;50.804;7.126;2023-05-16T00:19:46;5.43;;;2.15;;
33954;SDS011;20233;50.804;7.126;2023-05-16T00:22:13;5.68;;;1.95;;
33954;SDS011;20233;50.804;7.126;2023-05-16T00:24:39;5.80;;;2.10;;
33954;SDS011;20233;50.804;7.126;2023-05-16T00:27:05;7.07;;;2.10;;
33954;SDS011;20233;50.804;7.126;2023-05-16T00:29:31;6.93;;;2.88;;
33954;SDS011;20233;50.804;7.126;2023-05-16T00:31:58;5.25;;;2.65;;
33954;SDS011;20233;50.804;7.126;2023-05-16T00:34:23;7.30;;;2.08;;
33954;SDS011;20233;50.804;7.126;2023-05-16T00:36:49;4.95;;;2.67;;
33954;SDS011;20233;50.804;7.126;2023-05-16T00:39:15;6.90;;;3.20;;
33954;SDS011;20233;50.804;7.126;2023-05-16T00:41:40;7.03;;;2.90;;
33954;SDS011;20233;50.804;7.126;2023-05-16T00:44:06;6.63;;;4.78;;
33954;SDS011;20233;50.804;7.126;2023-05-16T00:46:32;13.30;;;6.22;;
33954;SDS011;20233;50.804;7.126;2023-05-16T00:48:58;11.55;;;6.80;;
33954;SDS011;20233;50.804;7.126;2023-05-16T00:51:23;11.80;;;7.50;;
33954;SDS011;20233;50.804;7.126;2023-05-16T00:53:49;11.02;;;7.43;;
33954;SDS011;20233;50.804;7.126;2023-05-16T00:56:15;12.45;;;8.27;;
33954;SDS011;20233;50.804;7.126;2023-05-16T00:58:42;13.63;;;7.75;;
33954;SDS011;20233;50.804;7.126;2023-05-16T01:01:08;14.45;;;8.07;;
33954;SDS011;20233;50.804;7.126;2023-05-16T01:03:33;12.75;;;7.68;;
33954;SDS011;20233;50.804;7.126;2023-05-16T01:05:59;12.63;;;6.93;;
33954;SDS011;20233;50.804;7.126;2023-05-16T01:08:26;11.07;;;7.13;;
33954;SDS011;20233;50.804;7.126;2023-05-16T01:10:59;9.18;;;6.63;;
33954;SDS011;20233;50.804;7.126;2023-05-16T01:16:30;9.95;;;6.93;;
33954;SDS011;20233;50.804;7.126;2023-05-16T01:19:05;9.13;;;6.93;;
33954;SDS011;20233;50.804;7.126;2023-05-16T01:21:43;9.50;;;6.50;;
33954;SDS011;20233;50.804;7.126;2023-05-16T01:24:32;10.95;;;6.75;;
33954;SDS011;20233;50.804;7.126;2023-05-16T01:26:59;13.40;;;8.15;;
33954;SDS011;20233;50.804;7.126;2023-05-16T01:29:26;12.00;;;8.18;;
33954;SDS011;20233;50.804;7.126;2023-05-16T01:31:52;11.40;;;8.65;;
33954;SDS011;20233;50.804;7.126;2023-05-16T01:34:17;14.63;;;7.53;;
33954;SDS011;20233;50.804;7.126;2023-05-16T01:36:44;12.55;;;9.50;;
33954;SDS011;20233;50.804;7.126;2023-05-16T01:39:21;15.52;;;10.55;;
33954;SDS011;20233;50.804;7.126;2023-05-16T01:42:12;14.32;;;10.38;;
33954;SDS011;20233;50.804;7.126;2023-05-16T01:44:44;13.10;;;8.50;;
33954;SDS011;20233;50.804;7.126;2023-05-16T01:47:15;10.85;;;8.30;;
33954;SDS011;20233;50.804;7.126;2023-05-16T01:52:23;9.13;;;5.85;;
33954;SDS011;20233;50.804;7.126;2023-05-16T01:54:57;8.23;;;4.55;;
33954;SDS011;20233;50.804;7.126;2023-05-16T01:57:25;8.15;;;4.93;;
33954;SDS011;20233;50.804;7.126;2023-05-16T01:59:54;6.73;;;4.63;;
33954;SDS011;20233;50.804;7.126;2023-05-16T02:02:22;6.47;;;4.80;;
33954;SDS011;20233;50.804;7.126;2023-05-16T02:04:47;6.60;;;4.72;;
33954;SDS011;20233;50.804;7.126;2023-05-16T02:07:13;9.23;;;5.95;;
33954;SDS011;20233;50.804;7.126;2023-05-16T02:09:39;11.32;;;7.55;;
33954;SDS011;20233;50.804;7.126;2023-05-16T02:12:05;13.55;;;7.97;;
33954;SDS011;20233;50.804;7.126;2023-05-16T02:14:30;14.27;;;9.48;;
33954;SDS011;20233;50.804;7.126;2023-05-16T02:16:56;15.70;;;9.15;;
33954;SDS011;20233;50.804;7.126;2023-05-16T02:19:22;16.13;;;9.27;;
33954;SDS011;20233;50.804;7.126;2023-05-16T02:21:47;15.77;;;9.30;;
33954;SDS011;20233;50.804;7.126;2023-05-16T02:24:13;13.88;;;8.60;;
33954;SDS011;20233;50.804;7.126;2023-05-16T02:26:39;17.88;;;9.70;;
33954;SDS011;20233;50.804;7.126;2023-05-16T02:29:05;16.80;;;10.68;;
33954;SDS011;20233;50.804;7.126;2023-05-16T02:31:32;16.05;;;10.35;;
33954;SDS011;20233;50.804;7.126;2023-05-16T02:33:59;19.23;;;11.52;;
33954;SDS011;20233;50.804;7.126;2023-05-16T02:36:25;19.13;;;12.00;;
33954;SDS011;20233;50.804;7.126;2023-05-16T02:38:50;15.93;;;9.80;;
33954;SDS011;20233;50.804;7.126;2023-05-16T02:41:16;17.83;;;10.15;;
33954;SDS011;20233;50.804;7.126;2023-05-16T02:43:42;12.82;;;8.82;;
33954;SDS011;20233;50.804;7.126;2023-05-16T02:46:29;11.93;;;6.57;;
33954;SDS011;20233;50.804;7.126;2023-05-16T02:48:55;12.85;;;7.93;;
33954;SDS011;20233;50.804;7.126;2023-05-16T02:51:21;8.90;;;4.93;;
33954;SDS011;20233;50.804;7.126;2023-05-16T02:53:48;9.38;;;6.20;;
33954;SDS011;20233;50.804;7.126;2023-05-16T02:56:14;10.88;;;6.30;;
33954;SDS011;20233;50.804;7.126;2023-05-16T02:58:40;9.88;;;6.43;;
33954;SDS011;20233;50.804;7.126;2023-05-16T03:01:06;9.77;;;4.63;;
33954;SDS011;20233;50.804;7.126;2023-05-16T03:03:31;12.00;;;6.35;;
33954;SDS011;20233;50.804;7.126;2023-05-16T03:05:59;9.73;;;6.35;;
33954;SDS011;20233;50.804;7.126;2023-05-16T03:08:25;9.10;;;5.18;;
33954;SDS011;20233;50.804;7.126;2023-05-16T03:10:51;7.68;;;4.07;;
33954;SDS011;20233;50.804;7.126;2023-05-16T03:13:16;10.77;;;3.53;;
33954;SDS011;20233;50.804;7.126;2023-05-16T03:15:42;6.47;;;3.38;;
33954;SDS011;20233;50.804;7.126;2023-05-16T03:18:08;6.35;;;2.83;;
33954;SDS011;20233;50.804;7.126;2023-05-16T03:20:33;9.55;;;3.45;;
33954;SDS011;20233;50.804;7.126;2023-05-16T03:23:00;10.93;;;3.70;;
33954;SDS011;20233;50.804;7.126;2023-05-16T03:25:25;8.07;;;2.50;;
33954;SDS011;20233;50.804;7.126;2023-05-16T03:27:51;11.45;;;3.53;;
33954;SDS011;20233;50.804;7.126;2023-05-16T03:30:16;8.07;;;3.17;;
33954;SDS011;20233;50.804;7.126;2023-05-16T03:32:44;10.40;;;3.90;;
33954;SDS011;20233;50.804;7.126;2023-05-16T03:35:09;12.82;;;4.10;;
33954;SDS011;20233;50.804;7.126;2023-05-16T03:37:37;10.02;;;4.63;;
33954;SDS011;20233;50.804;7.126;2023-05-16T03:40:03;12.70;;;5.82;;
33954;SDS011;20233;50.804;7.126;2023-05-16T03:42:30;10.98;;;2.95;;
33954;SDS011;20233;50.804;7.126;2023-05-16T03:44:56;12.60;;;4.40;;
33954;SDS011;20233;50.804;7.126;2023-05-16T03:47:22;12.45;;;5.43;;
33954;SDS011;20233;50.804;7.126;2023-05-16T03:49:47;13.75;;;5.18;;
33954;SDS011;20233;50.804;7.126;2023-05-16T03:52:13;9.85;;;4.75;;
33954;SDS011;20233;50.804;7.126;2023-05-16T03:54:39;14.60;;;4.90;;
33954;SDS011;20233;50.804;7.126;2023-05-16T03:57:04;9.02;;;4.68;;
33954;SDS011;20233;50.804;7.126;2023-05-16T03:59:30;13.15;;;5.03;;
33954;SDS011;20233;50.804;7.126;2023-05-16T04:01:55;11.23;;;5.28;;
33954;SDS011;20233;50.804;7.126;2023-05-16T04:04:21;16.48;;;5.88;;
33954;SDS011;20233;50.804;7.126;2023-05-16T04:06:46;11.68;;;5.03;;
33954;SDS011;20233;50.804;7.126;2023-05-16T04:09:12;11.55;;;5.40;;
33954;SDS011;20233;50.804;7.126;2023-05-16T04:11:38;13.98;;;5.65;;
33954;SDS011;20233;50.804;7.126;2023-05-16T04:14:05;17.13;;;4.97;;
33954;SDS011;20233;50.804;7.126;2023-05-16T04:16:31;17.80;;;7.32;;
33954;SDS011;20233;50.804;7.126;2023-05-16T04:18:56;19.70;;;6.50;;
33954;SDS011;20233;50.804;7.126;2023-05-16T04:21:23;16.70;;;6.50;;
33954;SDS011;20233;50.804;7.126;2023-05-16T04:23:48;16.70;;;6.20;;
33954;SDS011;20233;50.804;7.126;2023-05-16T04:26:14;17.65;;;6.43;;
33954;SDS011;20233;50.804;7.126;2023-05-16T04:28:40;14.93;;;5.75;;
33954;SDS011;20233;50.804;7.126;2023-05-16T04:31:07;17.92;;;6.00;;
33954;SDS011;20233;50.804;7.126;2023-05-16T04:33:33;16.02;;;6.28;;
33954;SDS011;20233;50.804;7.126;2023-05-16T04:35:58;21.67;;;7.07;;
33954;SDS011;20233;50.804;7.126;2023-05-16T04:38:24;20.98;;;6.68;;
33954;SDS011;20233;50.804;7.126;2023-05-16T04:40:50;15.77;;;5.93;;
33954;SDS011;20233;50.804;7.126;2023-05-16T04:43:16;19.73;;;6.15;;
33954;SDS011;20233;50.804;7.126;2023-05-16T04:45:43;20.20;;;6.00;;
33954;SDS011;20233;50.804;7.126;2023-05-16T04:48:09;17.85;;;6.38;;
33954;SDS011;20233;50.804;7.126;2023-05-16T04:50:36;20.35;;;6.55;;
33954;SDS011;20233;50.804;7.126;2023-05-16T04:53:01;16.77;;;7.22;;
33954;SDS011;20233;50.804;7.126;2023-05-16T04:55:27;10.57;;;3.83;;
33954;SDS011;20233;50.804;7.126;2023-05-16T04:57:52;22.40;;;5.05;;
33954;SDS011;20233;50.804;7.126;2023-05-16T05:00:18;11.98;;;4.32;;
33954;SDS011;20233;50.804;7.126;2023-05-16T05:02:45;19.65;;;5.90;;
33954;SDS011;20233;50.804;7.126;2023-05-16T05:05:10;20.90;;;4.78;;
33954;SDS011;20233;50.804;7.126;2023-05-16T05:07:36;18.52;;;5.38;;
33954;SDS011;20233;50.804;7.126;2023-05-16T05:10:02;14.60;;;3.80;;
33954;SDS011;20233;50.804;7.126;2023-05-16T05:12:28;19.88;;;4.72;;
33954;SDS011;20233;50.804;7.126;2023-05-16T05:14:53;12.13;;;4.05;;
33954;SDS011;20233;50.804;7.126;2023-05-16T05:17:19;14.52;;;4.20;;
33954;SDS011;20233;50.804;7.126;2023-05-16T05:19:46;17.17;;;4.25;;
33954;SDS011;20233;50.804;7.126;2023-05-16T05:22:12;13.82;;;4.60;;
33954;SDS011;20233;50.804;7.126;2023-05-16T05:24:39;15.07;;;4.40;;
33954;SDS011;20233;50.804;7.126;2023-05-16T05:27:06;20.48;;;5.15;;
33954;SDS011;20233;50.804;7.126;2023-05-16T05:29:32;13.38;;;4.10;;
33954;SDS011;20233;50.804;7.126;2023-05-16T05:31:57;14.93;;;5.35;;
33954;SDS011;20233;50.804;7.126;2023-05-16T05:34:23;18.17;;;4.70;;
33954;SDS011;20233;50.804;7.126;2023-05-16T05:36:49;12.63;;;3.85;;
33954;SDS011;20233;50.804;7.126;2023-05-16T05:39:14;16.42;;;3.85;;
33954;SDS011;20233;50.804;7.126;2023-05-16T05:41:40;23.52;;;4.45;;
33954;SDS011;20233;50.804;7.126;2023-05-16T05:44:06;14.07;;;3.22;;
33954;SDS011;20233;50.804;7.126;2023-05-16T05:46:31;12.02;;;3.60;;
33954;SDS011;20233;50.804;7.126;2023-05-16T05:48:58;19.23;;;4.50;;
33954;SDS011;20233;50.804;7.126;2023-05-16T05:51:24;10.52;;;3.20;;
33954;SDS011;20233;50.804;7.126;2023-05-16T05:53:50;12.10;;;3.15;;
33954;SDS011;20233;50.804;7.126;2023-05-16T05:56:16;11.82;;;3.42;;
33954;SDS011;20233;50.804;7.126;2023-05-16T05:58:42;17.45;;;3.42;;
33954;SDS011;20233;50.804;7.126;2023-05-16T06:01:09;17.27;;;3.60;;
33954;SDS011;20233;50.804;7.126;2023-05-16T06:03:35;11.15;;;3.17;;
33954;SDS011;20233;50.804;7.126;2023-05-16T06:06:01;14.02;;;2.97;;
33954;SDS011;20233;50.804;7.126;2023-05-16T06:08:27;14.80;;;4.10;;
33954;SDS011;20233;50.804;7.126;2023-05-16T06:10:53;11.27;;;2.88;;
33954;SDS011;20233;50.804;7.126;2023-05-16T06:13:18;18.33;;;3.90;;
33954;SDS011;20233;50.804;7.126;2023-05-16T06:15:48;16.15;;;3.17;;
33954;SDS011;20233;50.804;7.126;2023-05-16T06:18:17;14.15;;;3.60;;
33954;SDS011;20233;50.804;7.126;2023-05-16T06:20:43;11.73;;;3.45;;
33954;SDS011;20233;50.804;7.126;2023-05-16T06:23:09;13.70;;;4.80;;
33954;SDS011;20233;50.804;7.126;2023-05-16T06:25:35;14.23;;;4.18;;
33954;SDS011;20233;50.804;7.126;2023-05-16T06:28:01;15.88;;;4.18;;
33954;SDS011;20233;50.804;7.126;2023-05-16T06:30:26;10.88;;;4.13;;
33954;SDS011;20233;50.804;7.126;2023-05-16T06:32:52;12.13;;;3.70;;
33954;SDS011;20233;50.804;7.126;2023-05-16T06:35:18;13.40;;;4.25;;
33954;SDS011;20233;50.804;7.126;2023-05-16T06:37:43;14.20;;;2.90;;
33954;SDS011;20233;50.804;7.126;2023-05-16T06:40:09;13.70;;;3.55;;
33954;SDS011;20233;50.804;7.126;2023-05-16T06:42:35;12.75;;;3.35;;
33954;SDS011;20233;50.804;7.126;2023-05-16T06:45:01;11.85;;;3.08;;
33954;SDS011;20233;50.804;7.126;2023-05-16T06:47:26;15.00;;;3.80;;
33954;SDS011;20233;50.804;7.126;2023-05-16T06:49:54;13.18;;;2.75;;
33954;SDS011;20233;50.804;7.126;2023-05-16T06:52:20;14.23;;;3.33;;
33954;SDS011;20233;50.804;7.126;2023-05-16T06:54:46;12.75;;;3.92;;
33954;SDS011;20233;50.804;7.126;2023-05-16T06:57:12;12.15;;;3.85;;
33954;SDS011;20233;50.804;7.126;2023-05-16T06:59:37;12.65;;;2.85;;
33954;SDS011;20233;50.804;7.126;2023-05-16T07:02:03;12.75;;;3.88;;
33954;SDS011;20233;50.804;7.126;2023-05-16T07:04:30;11.65;;;2.35;;
33954;SDS011;20233;50.804;7.126;2023-05-16T07:06:56;12.68;;;2.42;;
33954;SDS011;20233;50.804;7.126;2023-05-16T07:09:22;10.05;;;2.60;;
33954;SDS011;20233;50.804;7.126;2023-05-16T07:11:48;9.10;;;2.50;;
33954;SDS011;20233;50.804;7.126;2023-05-16T07:14:13;8.80;;;1.70;;
33954;SDS011;20233;50.804;7.126;2023-05-16T07:16:39;15.73;;;3.40;;
33954;SDS011;20233;50.804;7.126;2023-05-16T07:19:04;14.48;;;2.97;;
33954;SDS011;20233;50.804;7.126;2023-05-16T07:21:30;6.97;;;2.33;;
33954;SDS011;20233;50.804;7.126;2023-05-16T07:23:57;15.35;;;3.40;;
33954;SDS011;20233;50.804;7.126;2023-05-16T07:26:23;9.40;;;1.33;;
33954;SDS011;20233;50.804;7.126;2023-05-16T07:28:49;11.70;;;2.25;;
33954;SDS011;20233;50.804;7.126;2023-05-16T07:31:15;6.00;;;0.98;;
33954;SDS011;20233;50.804;7.126;2023-05-16T07:33:41;9.65;;;1.42;;
33954;SDS011;20233;50.804;7.126;2023-05-16T07:36:07;5.45;;;0.63;;
33954;SDS011;20233;50.804;7.126;2023-05-16T07:38:33;9.82;;;2.05;;
33954;SDS011;20233;50.804;7.126;2023-05-16T07:40:59;7.72;;;1.60;;
33954;SDS011;20233;50.804;7.126;2023-05-16T07:43:25;7.82;;;1.00;;
33954;SDS011;20233;50.804;7.126;2023-05-16T07:45:51;7.80;;;0.77;;
33954;SDS011;20233;50.804;7.126;2023-05-16T07:48:17;5.80;;;0.70;;
33954;SDS011;20233;50.804;7.126;2023-05-16T07:50:42;6.40;;;1.15;;
33954;SDS011;20233;50.804;7.126;2023-05-16T07:53:08;2.72;;;0.40;;
33954;SDS011;20233;50.804;7.126;2023-05-16T07:55:34;7.20;;;0.73;;
33954;SDS011;20233;50.804;7.126;2023-05-16T07:58:01;9.15;;;1.63;;
33954;SDS011;20233;50.804;7.126;2023-05-16T08:00:27;9.23;;;1.05;;
33954;SDS011;20233;50.804;7.126;2023-05-16T08:02:53;7.15;;;0.73;;
33954;SDS011;20233;50.804;7.126;2023-05-16T08:05:19;5.82;;;0.70;;
33954;SDS011;20233;50.804;7.126;2023-05-16T08:07:45;8.75;;;0.88;;
33954;SDS011;20233;50.804;7.126;2023-05-16T08:10:10;6.20;;;1.02;;
33954;SDS011;20233;50.804;7.126;2023-05-16T08:12:36;3.55;;;0.73;;
33954;SDS011;20233;50.804;7.126;2023-05-16T08:15:03;5.47;;;0.30;;
33954;SDS011;20233;50.804;7.126;2023-05-16T08:17:29;6.95;;;1.05;;
33954;SDS011;20233;50.804;7.126;2023-05-16T08:19:54;13.55;;;1.25;;
33954;SDS011;20233;50.804;7.126;2023-05-16T08:22:20;6.60;;;0.40;;
33954;SDS011;20233;50.804;7.126;2023-05-16T08:24:46;6.90;;;0.63;;
33954;SDS011;20233;50.804;7.126;2023-05-16T08:27:12;2.58;;;0.25;;
33954;SDS011;20233;50.804;7.126;2023-05-16T08:29:37;7.25;;;0.68;;
33954;SDS011;20233;50.804;7.126;2023-05-16T08:32:04;6.22;;;0.57;;
33954;SDS011;20233;50.804;7.126;2023-05-16T08:34:30;3.72;;;0.30;;
33954;SDS011;20233;50.804;7.126;2023-05-16T08:36:56;6.43;;;0.52;;
33954;SDS011;20233;50.804;7.126;2023-05-16T08:39:22;9.20;;;0.70;;
33954;SDS011;20233;50.804;7.126;2023-05-16T08:41:47;5.40;;;0.60;;
33954;SDS011;20233;50.804;7.126;2023-05-16T08:44:13;8.55;;;0.63;;
33954;SDS011;20233;50.804;7.126;2023-05-16T08:46:47;4.95;;;0.70;;
33954;SDS011;20233;50.804;7.126;2023-05-16T08:49:15;4.22;;;0.38;;
33954;SDS011;20233;50.804;7.126;2023-05-16T08:51:42;3.38;;;0.30;;
33954;SDS011;20233;50.804;7.126;2023-05-16T08:54:10;6.35;;;1.20;;
33954;SDS011;20233;50.804;7.126;2023-05-16T08:56:37;4.88;;;0.40;;
33954;SDS011;20233;50.804;7.126;2023-05-16T08:59:05;7.85;;;0.60;;
33954;SDS011;20233;50.804;7.126;2023-05-16T09:01:32;5.00;;;0.20;;
33954;SDS011;20233;50.804;7.126;2023-05-16T09:03:58;9.35;;;0.63;;
33954;SDS011;20233;50.804;7.126;2023-05-16T09:06:24;9.60;;;0.38;;
33954;SDS011;20233;50.804;7.126;2023-05-16T09:08:51;7.82;;;0.40;;
33954;SDS011;20233;50.804;7.126;2023-05-16T09:11:20;6.15;;;0.40;;
33954;SDS011;20233;50.804;7.126;2023-05-16T09:13:46;2.78;;;0.20;;
33954;SDS011;20233;50.804;7.126;2023-05-16T09:16:13;2.17;;;0.30;;
33954;SDS011;20233;50.804;7.126;2023-05-16T09:18:45;5.85;;;0.40;;
33954;SDS011;20233;50.804;7.126;2023-05-16T09:21:16;5.38;;;0.20;;
33954;SDS011;20233;50.804;7.126;2023-05-16T09:23:42;4.43;;;0.63;;
33954;SDS011;20233;50.804;7.126;2023-05-16T09:26:08;8.68;;;0.55;;
33954;SDS011;20233;50.804;7.126;2023-05-16T09:28:36;5.88;;;0.40;;
33954;SDS011;20233;50.804;7.126;2023-05-16T09:31:03;4.05;;;0.45;;
33954;SDS011;20233;50.804;7.126;2023-05-16T09:33:43;4.97;;;0.93;;
33954;SDS011;20233;50.804;7.126;2023-05-16T09:36:08;5.07;;;0.20;;
33954;SDS011;20233;50.804;7.126;2023-05-16T09:38:34;3.92;;;0.17;;
33954;SDS011;20233;50.804;7.126;2023-05-16T09:41:00;5.32;;;0.30;;
33954;SDS011;20233;50.804;7.126;2023-05-16T09:43:26;5.18;;;0.20;;
33954;SDS011;20233;50.804;7.126;2023-05-16T09:45:52;3.15;;;0.30;;
33954;SDS011;20233;50.804;7.126;2023-05-16T09:48:19;5.45;;;0.35;;
33954;SDS011;20233;50.804;7.126;2023-05-16T09:50:54;5.80;;;0.38;;
33954;SDS011;20233;50.804;7.126;2023-05-16T09:53:29;6.70;;;0.40;;
33954;SDS011;20233;50.804;7.126;2023-05-16T09:56:03;4.25;;;0.57;;
33954;SDS011;20233;50.804;7.126;2023-05-16T09:58:37;4.07;;;0.25;;
33954;SDS011;20233;50.804;7.126;2023-05-16T10:01:04;6.28;;;0.30;;
33954;SDS011;20233;50.804;7.126;2023-05-16T10:03:32;4.38;;;0.40;;
33954;SDS011;20233;50.804;7.126;2023-05-16T10:06:00;3.80;;;0.38;;
33954;SDS011;20233;50.804;7.126;2023-05-16T10:08:25;6.38;;;0.47;;
33954;SDS011;20233;50.804;7.126;2023-05-16T10:10:52;6.78;;;0.35;;
33954;SDS011;20233;50.804;7.126;2023-05-16T10:13:23;5.50;;;0.50;;
33954;SDS011;20233;50.804;7.126;2023-05-16T10:15:53;6.88;;;0.70;;
33954;SDS011;20233;50.804;7.126;2023-05-16T10:18:20;6.53;;;0.30;;
33954;SDS011;20233;50.804;7.126;2023-05-16T10:20:46;6.82;;;0.50;;
33954;SDS011;20233;50.804;7.126;2023-05-16T10:23:17;4.65;;;0.40;;
33954;SDS011;20233;50.804;7.126;2023-05-16T10:25:44;4.65;;;0.50;;
33954;SDS011;20233;50.804;7.126;2023-05-16T10:28:13;7.38;;;0.70;;
33954;SDS011;20233;50.804;7.126;2023-05-16T10:30:41;3.40;;;0.38;;
33954;SDS011;20233;50.804;7.126;2023-05-16T10:33:09;4.97;;;0.50;;
33954;SDS011;20233;50.804;7.126;2023-05-16T10:35:40;4.38;;;0.70;;
33954;SDS011;20233;50.804;7.126;2023-05-16T10:38:07;5.53;;;0.60;;
33954;SDS011;20233;50.804;7.126;2023-05-16T10:40:34;1.60;;;0.30;;
33954;SDS011;20233;50.804;7.126;2023-05-16T10:43:02;2.83;;;0.20;;
33954;SDS011;20233;50.804;7.126;2023-05-16T10:45:32;3.28;;;0.28;;
33954;SDS011;20233;50.804;7.126;2023-05-16T10:47:58;3.53;;;0.20;;
33954;SDS011;20233;50.804;7.126;2023-05-16T10:50:32;3.97;;;0.50;;
33954;SDS011;20233;50.804;7.126;2023-05-16T10:53:18;5.43;;;0.60;;
33954;SDS011;20233;50.804;7.126;2023-05-16T11:06:27;5.82;;;0.45;;
33954;SDS011;20233;50.804;7.126;2023-05-16T11:11:42;4.90;;;0.30;;
33954;SDS011;20233;50.804;7.126;2023-05-16T11:17:13;4.63;;;0.20;;
33954;SDS011;20233;50.804;7.126;2023-05-16T11:25:03;6.38;;;0.50;;
33954;SDS011;20233;50.804;7.126;2023-05-16T11:27:31;5.65;;;0.35;;
33954;SDS011;20233;50.804;7.126;2023-05-16T11:29:59;4.90;;;0.20;;
33954;SDS011;20233;50.804;7.126;2023-05-16T11:32:34;5.78;;;0.60;;
33954;SDS011;20233;50.804;7.126;2023-05-16T11:35:01;6.07;;;0.30;;
33954;SDS011;20233;50.804;7.126;2023-05-16T11:37:28;1.77;;;0.10;;
33954;SDS011;20233;50.804;7.126;2023-05-16T11:39:57;3.58;;;0.20;;
33954;SDS011;20233;50.804;7.126;2023-05-16T11:42:28;4.25;;;0.40;;
33954;SDS011;20233;50.804;7.126;2023-05-16T11:45:09;3.95;;;0.30;;
33954;SDS011;20233;50.804;7.126;2023-05-16T11:47:36;2.90;;;0.17;;
33954;SDS011;20233;50.804;7.126;2023-05-16T11:50:06;4.82;;;0.20;;
33954;SDS011;20233;50.804;7.126;2023-05-16T11:52:37;1.70;;;0.20;;
33954;SDS011;20233;50.804;7.126;2023-05-16T11:55:06;5.22;;;0.30;;
33954;SDS011;20233;50.804;7.126;2023-05-16T11:57:34;4.90;;;0.40;;
33954;SDS011;20233;50.804;7.126;2023-05-16T12:00:01;4.43;;;0.35;;
33954;SDS011;20233;50.804;7.126;2023-05-16T12:02:28;2.40;;;0.30;;
33954;SDS011;20233;50.804;7.126;2023-05-16T12:04:54;2.78;;;0.40;;
33954;SDS011;20233;50.804;7.126;2023-05-16T12:07:26;5.95;;;0.65;;
33954;SDS011;20233;50.804;7.126;2023-05-16T12:09:52;2.88;;;0.30;;
33954;SDS011;20233;50.804;7.126;2023-05-16T12:12:19;4.78;;;0.32;;
33954;SDS011;20233;50.804;7.126;2023-05-16T12:14:47;4.50;;;0.60;;
33954;SDS011;20233;50.804;7.126;2023-05-16T12:17:12;4.57;;;0.52;;
33954;SDS011;20233;50.804;7.126;2023-05-16T12:19:38;4.72;;;0.50;;
33954;SDS011;20233;50.804;7.126;2023-05-16T12:22:04;5.25;;;0.60;;
33954;SDS011;20233;50.804;7.126;2023-05-16T12:24:36;3.28;;;0.63;;
33954;SDS011;20233;50.804;7.126;2023-05-16T12:27:04;3.83;;;0.50;;
33954;SDS011;20233;50.804;7.126;2023-05-16T12:29:32;4.50;;;0.55;;
33954;SDS011;20233;50.804;7.126;2023-05-16T12:31:58;5.03;;;0.60;;
33954;SDS011;20233;50.804;7.126;2023-05-16T12:34:27;4.80;;;0.50;;
33954;SDS011;20233;50.804;7.126;2023-05-16T12:36:53;3.83;;;0.85;;
33954;SDS011;20233;50.804;7.126;2023-05-16T12:39:20;4.60;;;0.40;;
33954;SDS011;20233;50.804;7.126;2023-05-16T12:41:46;3.45;;;0.55;;
33954;SDS011;20233;50.804;7.126;2023-05-16T12:44:14;5.38;;;0.70;;
33954;SDS011;20233;50.804;7.126;2023-05-16T12:46:42;5.13;;;0.63;;
33954;SDS011;20233;50.804;7.126;2023-05-16T12:49:08;4.63;;;0.60;;
33954;SDS011;20233;50.804;7.126;2023-05-16T12:51:34;3.42;;;0.73;;
33954;SDS011;20233;50.804;7.126;2023-05-16T12:54:06;2.35;;;0.63;;
33954;SDS011;20233;50.804;7.126;2023-05-16T12:56:39;5.45;;;0.30;;
33954;SDS011;20233;50.804;7.126;2023-05-16T12:59:08;6.05;;;0.55;;
33954;SDS011;20233;50.804;7.126;2023-05-16T13:01:36;3.15;;;0.40;;
33954;SDS011;20233;50.804;7.126;2023-05-16T13:04:01;2.33;;;0.22;;
33954;SDS011;20233;50.804;7.126;2023-05-16T13:06:27;8.65;;;0.95;;
33954;SDS011;20233;50.804;7.126;2023-05-16T13:08:53;5.40;;;0.30;;
33954;SDS011;20233;50.804;7.126;2023-05-16T13:11:19;3.10;;;0.38;;
33954;SDS011;20233;50.804;7.126;2023-05-16T13:13:45;6.32;;;0.40;;
33954;SDS011;20233;50.804;7.126;2023-05-16T13:16:10;2.13;;;0.20;;
33954;SDS011;20233;50.804;7.126;2023-05-16T13:18:36;2.58;;;0.20;;
33954;SDS011;20233;50.804;7.126;2023-05-16T13:21:02;1.70;;;0.20;;
33954;SDS011;20233;50.804;7.126;2023-05-16T13:23:30;3.08;;;0.75;;
33954;SDS011;20233;50.804;7.126;2023-05-16T13:25:56;3.35;;;0.30;;
33954;SDS011;20233;50.804;7.126;2023-05-16T13:28:23;3.22;;;0.30;;
33954;SDS011;20233;50.804;7.126;2023-05-16T13:30:49;3.15;;;0.45;;
33954;SDS011;20233;50.804;7.126;2023-05-16T13:33:15;3.83;;;0.52;;
33954;SDS011;20233;50.804;7.126;2023-05-16T13:35:42;2.67;;;0.30;;
33954;SDS011;20233;50.804;7.126;2023-05-16T13:38:08;6.60;;;0.35;;
33954;SDS011;20233;50.804;7.126;2023-05-16T13:40:33;2.42;;;0.30;;
33954;SDS011;20233;50.804;7.126;2023-05-16T13:43:00;5.40;;;0.75;;
33954;SDS011;20233;50.804;7.126;2023-05-16T13:45:26;4.03;;;0.25;;
33954;SDS011;20233;50.804;7.126;2023-05-16T13:47:52;5.38;;;0.73;;
33954;SDS011;20233;50.804;7.126;2023-05-16T13:50:18;2.60;;;0.40;;
33954;SDS011;20233;50.804;7.126;2023-05-16T13:52:44;3.03;;;0.70;;
33954;SDS011;20233;50.804;7.126;2023-05-16T13:55:11;4.75;;;0.60;;
33954;SDS011;20233;50.804;7.126;2023-05-16T13:57:37;3.22;;;0.30;;
33954;SDS011;20233;50.804;7.126;2023-05-16T14:00:02;2.42;;;0.38;;
33954;SDS011;20233;50.804;7.126;2023-05-16T14:02:38;1.95;;;0.20;;
33954;SDS011;20233;50.804;7.126;2023-05-16T14:05:05;2.95;;;0.20;;
33954;SDS011;20233;50.804;7.126;2023-05-16T14:07:32;9.93;;;3.78;;
33954;SDS011;20233;50.804;7.126;2023-05-16T14:09:58;2.53;;;0.55;;
33954;SDS011;20233;50.804;7.126;2023-05-16T14:12:24;4.65;;;0.35;;
33954;SDS011;20233;50.804;7.126;2023-05-16T14:14:49;5.03;;;0.52;;
33954;SDS011;20233;50.804;7.126;2023-05-16T14:17:15;2.45;;;0.38;;
33954;SDS011;20233;50.804;7.126;2023-05-16T14:19:40;3.75;;;0.75;;
33954;SDS011;20233;50.804;7.126;2023-05-16T14:22:06;4.47;;;0.30;;
33954;SDS011;20233;50.804;7.126;2023-05-16T14:24:33;3.65;;;0.28;;
33954;SDS011;20233;50.804;7.126;2023-05-16T14:26:59;1.48;;;0.10;;
33954;SDS011;20233;50.804;7.126;2023-05-16T14:29:25;1.65;;;0.20;;
33954;SDS011;20233;50.804;7.126;2023-05-16T14:31:51;4.07;;;0.20;;
33954;SDS011;20233;50.804;7.126;2023-05-16T14:34:17;2.53;;;0.40;;
33954;SDS011;20233;50.804;7.126;2023-05-16T14:36:42;1.88;;;0.30;;
33954;SDS011;20233;50.804;7.126;2023-05-16T14:39:08;3.03;;;0.30;;
33954;SDS011;20233;50.804;7.126;2023-05-16T14:41:35;1.30;;;0.20;;
33954;SDS011;20233;50.804;7.126;2023-05-16T14:44:01;2.83;;;0.20;;
33954;SDS011;20233;50.804;7.126;2023-05-16T14:46:27;3.22;;;0.30;;
33954;SDS011;20233;50.804;7.126;2023-05-16T14:48:52;2.28;;;0.30;;
33954;SDS011;20233;50.804;7.126;2023-05-16T14:51:18;3.88;;;0.55;;
33954;SDS011;20233;50.804;7.126;2023-05-16T14:53:45;2.10;;;0.20;;
33954;SDS011;20233;50.804;7.126;2023-05-16T14:56:13;3.20;;;0.20;;
33954;SDS011;20233;50.804;7.126;2023-05-16T14:58:40;4.72;;;0.20;;
33954;SDS011;20233;50.804;7.126;2023-05-16T15:01:06;1.92;;;0.20;;
33954;SDS011;20233;50.804;7.126;2023-05-16T15:03:33;4.72;;;0.30;;
33954;SDS011;20233;50.804;7.126;2023-05-16T15:06:01;1.95;;;0.28;;
33954;SDS011;20233;50.804;7.126;2023-05-16T15:08:29;4.68;;;0.32;;